Terminal Aerodrome Forecast
Issued by NWS Charleston, WV

Current Version | Previous Version | Text Only | Print | Product List | Glossary Off
Versions: 1 2 3 4 5 6 7 8 9 10 11 12 13 14 15 16 17 18 19 20 21 22 23 24 25 26 27

354
FTUS41 KRLX 201121
TAFPKB
TAF
KPKB 201121Z 2012/2112 15005KT 5SM -RA BR SCT015 OVC025
      TEMPO 2012/2015 3SM -RA BR OVC015
     FM201500 19007KT P6SM -SHRA OVC020
     FM201800 23007KT P6SM OVC035
     FM202100 23008KT P6SM BKN040
     FM210000 21004KT P6SM BKN035
     FM211000 20003KT 5SM BR BKN045=

USA.gov is the U.S. government's official web portal to all federal, state and local government web resources and services.